Hauptseite
METAR-TAF:

METAR-TAF

Flughäfen :

New Castle, Pennsylvania, Vereinigte Staaten

Breite: 41-01-31N, Länge: 080-24-48W, Höhe: 326 m

Beobachtung

Neuester Wetterbericht von vor 48 Minuten, um 07:56 UTC
Wind 3 kt aus West
Temperatur 11°C
Luftfeuchtigkeit 71%
Luftdruck 996 hPa
Sichtweite: 16.1 km
Himmel klar

METAR: KUCP 090756Z AUTO 26003KT 10SM CLR 11/06 A2941 RMK AO2 SLP969 T01110056 PNO $

Zeit: 04:44 (08:44 UTC)


TAF: fehlend

Wetterbeobachtungen und Prognosen von mehr als 4000 Flughäfen (METAR und TAF Bericht).

Die verfügbaren Stationen werden durch gelbe und rote Markierungen auf der Karte dargestellt.

Führen Sie die Maus auf sie, um den Namen der Station zu sehen.

Darauf klicken, um die Beobachtung von Wetterbeobachtungen und Prognosen zu sehen.

Um die Karte zu ändern : klicken Sie auf den grünen Tasten mit einem schwarzen Kreuz Zum Vergrößern, auf den grünen Button mit einem Gedankenstrich zu verkleinern, oder auf die grünen Pfeile für benachbarte Karten.


METAR-TAF: